Time;durP1;ratioP1;P1;durP2;ratioP2;P2;SDS_P1;SDS_P2;PMS_P1;PMS_P2;Temp;Humidity;BMP_temperature;BMP_pressure;BME280_temperature;BME280_humidity;BME280_pressure;Samples;Min_cycle;Max_cycle;Signal;HPM_P1;HPM_P2
2022/04/27 00:00:25;;;;;;;;;11.50;10.00;;;;;12.71;48.60;101616.47;5023874;28;45616;-83
2022/04/27 00:02:51;;;;;;;;;15.75;12.00;;;;;12.69;48.35;101608.53;5024945;28;45669;-82
2022/04/27 00:05:18;;;;;;;;;15.50;14.00;;;;;12.70;48.33;101609.38;5026284;28;45728;-83
2022/04/27 00:07:44;;;;;;;;;15.25;15.00;;;;;12.75;48.22;101607.38;5024454;28;45585;-82
2022/04/27 00:10:10;;;;;;;;;13.50;11.50;;;;;12.71;48.45;101613.81;5015070;28;46118;-82
2022/04/27 00:12:37;;;;;;;;;12.50;11.25;;;;;12.68;48.90;101620.16;5020940;28;45644;-81
2022/04/27 00:15:04;;;;;;;;;12.25;10.75;;;;;12.68;48.58;101619.31;5025438;28;45550;-83
2022/04/27 00:17:29;;;;;;;;;14.75;12.75;;;;;12.61;48.71;101618.75;5040127;28;45641;-82
2022/04/27 00:19:55;;;;;;;;;15.50;13.50;;;;;12.56;48.63;101613.63;5025289;28;47041;-82
2022/04/27 00:22:20;;;;;;;;;14.00;10.00;;;;;12.56;48.78;101612.78;5023339;28;47236;-83
2022/04/27 00:24:45;;;;;;;;;12.50;12.50;;;;;12.57;48.82;101609.16;5022593;28;45814;-82
2022/04/27 00:27:11;;;;;;;;;11.75;11.50;;;;;12.45;48.82;101599.09;5023335;28;45494;-83
2022/04/27 00:29:36;;;;;;;;;14.50;13.25;;;;;12.48;48.91;101610.50;5022965;28;51948;-82
2022/04/27 00:32:01;;;;;;;;;15.25;13.25;;;;;12.45;49.39;101615.13;5020538;28;54132;-82
2022/04/27 00:34:27;;;;;;;;;13.25;13.25;;;;;12.44;49.19;101614.25;5018865;28;45467;-83
2022/04/27 00:36:52;;;;;;;;;14.00;14.00;;;;;12.46;49.11;101617.72;5024945;28;45621;-83
2022/04/27 00:39:17;;;;;;;;;11.75;11.00;;;;;12.40;48.94;101606.47;5024749;28;46291;-83
2022/04/27 00:41:58;;;;;;;;;15.00;14.25;;;;;12.35;49.40;101607.56;5021807;28;45501;-83
2022/04/27 00:44:28;;;;;;;;;14.25;14.25;;;;;12.35;49.29;101604.88;5023807;28;45681;-83
2022/04/27 00:46:54;;;;;;;;;15.00;13.00;;;;;12.36;49.24;101614.66;5017292;28;45336;-83
2022/04/27 00:49:19;;;;;;;;;19.00;16.50;;;;;12.28;49.31;101592.78;5003340;28;47422;-84
2022/04/27 00:51:45;;;;;;;;;14.25;13.25;;;;;12.31;49.02;101606.00;5021128;28;46095;-84
2022/04/27 00:54:11;;;;;;;;;13.00;13.00;;;;;12.28;49.50;101610.63;5018569;28;45522;-82
2022/04/27 00:56:38;;;;;;;;;13.00;11.25;;;;;12.27;49.65;101608.91;5021750;28;45480;-82
2022/04/27 00:59:04;;;;;;;;;14.00;10.25;;;;;12.22;49.96;101606.44;5025134;28;47481;-83
2022/04/27 01:01:30;;;;;;;;;13.00;13.00;;;;;12.23;49.71;101602.81;5021836;28;45878;-82
2022/04/27 01:03:56;;;;;;;;;15.00;13.00;;;;;12.21;49.56;101607.38;5017477;28;45567;-82
2022/04/27 01:06:21;;;;;;;;;15.50;12.00;;;;;12.14;49.82;101608.59;5014286;28;45853;-81
2022/04/27 01:08:47;;;;;;;;;16.25;13.75;;;;;12.12;50.13;101597.13;5020623;28;45383;-83
2022/04/27 01:11:13;;;;;;;;;14.50;14.00;;;;;12.11;49.94;101592.75;5018811;28;45863;-83
2022/04/27 01:13:38;;;;;;;;;9.75;8.75;;;;;12.10;49.82;101591.91;5017709;28;45392;-82
2022/04/27 01:16:05;;;;;;;;;14.75;13.50;;;;;11.99;50.21;101575.53;5026993;28;46239;-83
2022/04/27 01:18:30;;;;;;;;;13.25;13.00;;;;;12.02;50.39;101596.72;5017799;28;45764;-83
2022/04/27 01:20:56;;;;;;;;;13.00;13.00;;;;;11.99;50.21;101601.34;5016232;28;45329;-82
2022/04/27 01:23:22;;;;;;;;;17.75;12.75;;;;;11.98;50.30;101588.94;5015032;28;45634;-82
2022/04/27 01:25:57;;;;;;;;;14.00;13.25;;;;;11.96;50.44;101591.69;5019334;28;47267;-82
2022/04/27 01:28:30;;;;;;;;;16.00;14.50;;;;;11.94;50.50;101588.22;5016867;28;47555;-82
2022/04/27 01:31:01;;;;;;;;;16.00;12.50;;;;;11.94;50.44;101588.22;5025694;28;45554;-83
2022/04/27 01:33:27;;;;;;;;;15.00;12.50;;;;;11.93;50.39;101586.53;5032488;28;45482;-82
2022/04/27 01:35:53;;;;;;;;;17.00;14.00;;;;;11.89;50.41;101576.94;5012931;28;45407;-82
2022/04/27 01:38:19;;;;;;;;;14.75;14.50;;;;;11.84;50.55;101590.44;5014495;28;46231;-83
2022/04/27 01:40:46;;;;;;;;;14.25;13.00;;;;;11.82;50.37;101586.97;5017567;28;45226;-82
2022/04/27 01:43:14;;;;;;;;;12.25;12.25;;;;;11.82;50.68;101586.97;5022063;28;45516;-81
2022/04/27 01:45:41;;;;;;;;;17.75;15.50;;;;;11.78;50.64;101589.88;5018716;28;45541;-82
2022/04/27 01:48:07;;;;;;;;;17.75;17.25;;;;;11.78;50.69;101606.72;5021681;28;45812;-83
2022/04/27 01:50:32;;;;;;;;;16.75;14.25;;;;;11.77;50.86;101589.00;5020102;28;45535;-83
2022/04/27 01:55:41;;;;;;;;;16.25;14.75;;;;;11.66;50.87;101573.50;5011916;28;45554;-81
2022/04/27 01:58:07;;;;;;;;;17.75;14.00;;;;;11.73;50.91;101595.41;5012062;28;53724;-81
2022/04/27 02:20:43;;;;;;;;;18.00;17.25;;;;;11.43;51.46;101603.06;5012282;28;45679;-82
2022/04/27 02:23:08;;;;;;;;;17.75;15.75;;;;;11.41;52.00;101604.94;5012699;28;46749;-82
2022/04/27 02:25:34;;;;;;;;;20.75;18.25;;;;;11.41;51.97;101600.47;5013106;28;45458;-81
2022/04/27 02:27:59;;;;;;;;;16.50;14.00;;;;;11.40;52.20;101601.41;5016073;28;45411;-83
2022/04/27 02:30:25;;;;;;;;;19.75;17.50;;;;;11.39;52.54;101602.31;5013658;28;48346;-84
2022/04/27 02:32:50;;;;;;;;;14.25;13.50;;;;;11.36;52.34;101591.81;5014576;28;45492;-81
2022/04/27 02:35:16;;;;;;;;;16.25;15.00;;;;;11.39;52.17;101594.31;5013417;28;45424;-81
2022/04/27 02:37:41;;;;;;;;;17.25;15.25;;;;;11.42;52.41;101601.31;5011630;28;45541;-84
2022/04/27 02:40:10;;;;;;;;;16.25;15.50;;;;;11.43;52.24;101595.06;5030425;28;45622;-81
2022/04/27 02:42:36;;;;;;;;;19.00;16.75;;;;;11.40;52.41;101596.06;5029814;28;47285;-81
2022/04/27 02:45:01;;;;;;;;;19.50;17.50;;;;;11.36;52.78;101601.63;5011722;28;45635;-82
2022/04/27 02:47:26;;;;;;;;;18.00;16.75;;;;;11.29;52.55;101590.34;5015896;28;45570;-82
2022/04/27 02:52:35;;;;;;;;;20.75;18.00;;;;;11.25;52.72;101594.09;5015069;28;45489;-82
2022/04/27 02:55:02;;;;;;;;;22.75;19.50;;;;;11.23;52.68;101582.63;5015096;28;45762;-82
2022/04/27 02:57:27;;;;;;;;;20.75;18.50;;;;;11.24;52.75;101587.91;5016990;28;45515;-82
2022/04/27 02:59:53;;;;;;;;;19.00;17.00;;;;;11.21;53.05;101585.38;5016105;28;45425;-82
2022/04/27 03:02:18;;;;;;;;;21.50;19.00;;;;;11.24;53.10;101597.69;5016309;28;45352;-82
2022/04/27 03:04:44;;;;;;;;;20.50;20.50;;;;;11.21;53.03;101590.72;5027077;28;49890;-82
2022/04/27 03:07:09;;;;;;;;;22.00;18.25;;;;;11.17;53.30;101581.13;5013546;28;45476;-81
2022/04/27 03:09:35;;;;;;;;;19.75;19.75;;;;;11.15;53.23;101572.31;5015808;28;45450;-82
2022/04/27 03:12:00;;;;;;;;;24.50;21.50;;;;;11.15;53.29;101588.31;5016048;28;45577;-82
2022/04/27 03:14:28;;;;;;;;;21.75;20.25;;;;;11.13;53.31;101595.50;5017002;28;45217;-82
2022/04/27 03:16:54;;;;;;;;;18.00;18.00;;;;;11.12;53.45;101587.59;5016220;28;45394;-82
2022/04/27 03:19:20;;;;;;;;;22.25;17.25;;;;;11.03;53.45;101573.72;5017215;28;45468;-82
2022/04/27 03:21:46;;;;;;;;;17.25;16.50;;;;;11.04;53.77;101583.47;5016335;28;46007;-82
2022/04/27 03:24:12;;;;;;;;;19.50;18.00;;;;;10.99;53.73;101580.16;5017088;28;45625;-82
2022/04/27 03:26:37;;;;;;;;;24.75;23.50;;;;;11.04;53.68;101591.47;5015499;28;45416;-82
2022/04/27 03:29:03;;;;;;;;;21.25;18.25;;;;;11.04;53.70;101583.47;5017857;28;45411;-82
2022/04/27 03:31:29;;;;;;;;;20.25;19.50;;;;;11.01;53.90;101602.22;5031820;28;48322;-82
2022/04/27 03:33:54;;;;;;;;;26.75;22.25;;;;;10.99;54.15;101589.91;5015361;28;45458;-82
2022/04/27 03:36:19;;;;;;;;;21.25;21.25;;;;;10.94;54.15;101589.25;5016157;28;45905;-82
2022/04/27 03:38:48;;;;;;;;;21.50;20.25;;;;;10.91;54.02;101589.41;5016577;28;53072;-82
2022/04/27 03:41:14;;;;;;;;;20.75;18.50;;;;;10.89;54.36;101589.44;5016874;28;45505;-81
2022/04/27 03:43:40;;;;;;;;;24.25;23.75;;;;;10.90;54.38;101590.34;5017148;28;45523;-82
2022/04/27 03:46:05;;;;;;;;;20.00;16.00;;;;;10.91;54.31;101584.94;5016419;28;45342;-82
2022/04/27 03:48:30;;;;;;;;;22.25;20.50;;;;;10.92;54.36;101588.44;5016040;28;45884;-82
2022/04/27 03:50:56;;;;;;;;;22.00;22.00;;;;;10.85;54.52;101570.09;5015956;28;46079;-82
2022/04/27 03:53:21;;;;;;;;;20.25;18.50;;;;;10.86;54.25;101579.81;5024532;28;45432;-82
2022/04/27 03:55:46;;;;;;;;;23.75;19.50;;;;;10.83;54.65;101595.06;5016992;28;45488;-82
2022/04/27 03:58:12;;;;;;;;;29.25;24.50;;;;;10.83;54.62;101589.75;5028146;28;52571;-82
2022/04/27 04:00:37;;;;;;;;;24.75;23.00;;;;;10.84;54.93;101591.47;5009326;28;46052;-82
2022/04/27 04:03:04;;;;;;;;;25.75;20.50;;;;;10.84;54.84;101592.31;5016476;28;45513;-82
2022/04/27 04:05:30;;;;;;;;;26.75;24.50;;;;;10.83;54.76;101593.25;5016050;28;45423;-82
2022/04/27 04:07:56;;;;;;;;;26.25;24.25;;;;;10.76;54.91;101589.13;5016745;28;45510;-82
2022/04/27 04:10:22;;;;;;;;;24.25;22.75;;;;;10.73;55.37;101586.59;5016305;28;45317;-82
2022/04/27 04:12:48;;;;;;;;;24.25;22.50;;;;;10.67;55.21;101594.84;5014977;28;47362;-82
2022/04/27 04:15:14;;;;;;;;;22.75;22.50;;;;;10.68;55.28;101595.72;5015992;28;45420;-82
2022/04/27 04:17:44;;;;;;;;;24.75;21.75;;;;;10.63;55.62;101587.91;5016067;28;45474;-82
2022/04/27 04:20:13;;;;;;;;;25.25;22.50;;;;;10.62;55.68;101600.38;5015703;28;45599;-82
2022/04/27 04:22:39;;;;;;;;;27.50;22.00;;;;;10.61;55.66;101592.47;5015201;28;46070;-82
2022/04/27 04:30:33;;;;;;;;;25.25;23.00;;;;;10.58;55.93;101601.44;5015626;28;45407;-82
2022/04/27 04:32:58;;;;;;;;;25.50;22.50;;;;;10.58;55.94;101598.78;5015881;28;45631;-82
2022/04/27 04:35:23;;;;;;;;;22.25;22.00;;;;;10.49;56.07;101598.31;5015956;28;45459;-82
2022/04/27 04:37:49;;;;;;;;;24.50;22.00;;;;;10.50;56.26;101597.38;5016192;28;45369;-82
2022/04/27 04:40:14;;;;;;;;;30.50;26.00;;;;;10.52;56.15;101607.03;5015627;28;45599;-82
2022/04/27 04:42:39;;;;;;;;;26.50;24.00;;;;;10.53;56.33;101613.19;5015073;28;45463;-82
2022/04/27 04:45:06;;;;;;;;;28.50;27.75;;;;;10.49;56.22;101612.47;5015414;28;45497;-82
2022/04/27 04:47:31;;;;;;;;;27.50;25.25;;;;;10.48;56.39;101616.06;5013969;28;45591;-82
2022/04/27 04:49:56;;;;;;;;;28.50;25.75;;;;;10.42;56.55;101619.84;5015219;28;45427;-82
2022/04/27 04:52:21;;;;;;;;;33.50;27.25;;;;;10.43;56.75;101613.59;5014931;28;51894;-82
2022/04/27 04:54:47;;;;;;;;;30.25;27.00;;;;;10.43;56.97;101616.25;5014991;28;45726;-82
2022/04/27 04:57:12;;;;;;;;;26.00;25.75;;;;;10.44;56.72;101622.47;5015076;28;46659;-82
2022/04/27 04:59:37;;;;;;;;;32.75;30.50;;;;;10.37;56.96;101616.50;5014946;28;46105;-82
2022/04/27 05:02:03;;;;;;;;;26.00;26.00;;;;;10.29;57.06;101613.28;5013694;28;48685;-82
2022/04/27 05:04:28;;;;;;;;;27.25;26.75;;;;;10.36;57.08;101629.88;5013818;28;45492;-81
2022/04/27 05:06:54;;;;;;;;;36.25;29.00;;;;;10.36;57.17;101628.06;5014782;28;45447;-82
2022/04/27 05:09:19;;;;;;;;;24.50;23.25;;;;;10.36;57.20;101625.41;5013130;28;47613;-82
2022/04/27 05:11:44;;;;;;;;;27.25;22.75;;;;;10.37;57.27;101629.81;5013418;28;45508;-82
2022/04/27 05:14:10;;;;;;;;;38.00;29.75;;;;;10.36;56.99;101630.72;5015123;28;45376;-82
2022/04/27 05:16:36;;;;;;;;;29.50;26.50;;;;;10.33;57.54;101630.00;5013515;28;45483;-82
2022/04/27 05:19:02;;;;;;;;;28.50;28.50;;;;;10.28;57.61;101627.53;5014311;28;45301;-82
2022/04/27 05:21:27;;;;;;;;;32.25;28.50;;;;;10.29;57.46;101631.91;5013440;28;45504;-82
2022/04/27 05:23:53;;;;;;;;;28.25;26.75;;;;;10.28;57.49;101624.88;5014996;28;45285;-82
2022/04/27 05:26:18;;;;;;;;;31.50;31.00;;;;;10.29;57.51;101634.56;5013881;28;45392;-82
2022/04/27 05:34:11;;;;;;;;;30.00;28.00;;;;;10.20;57.79;101635.78;5014794;28;45411;-82
2022/04/27 05:36:37;;;;;;;;;31.25;28.75;;;;;10.17;58.09;101630.59;5013137;28;54175;-82
2022/04/27 05:39:02;;;;;;;;;32.75;30.50;;;;;10.23;58.14;101638.31;5014868;28;45397;-82
2022/04/27 05:41:28;;;;;;;;;32.00;27.50;;;;;10.21;57.86;101655.28;5030265;28;45413;-82
2022/04/27 05:43:53;;;;;;;;;36.50;30.50;;;;;10.21;58.04;101653.47;5015364;28;45309;-82
2022/04/27 05:46:18;;;;;;;;;32.00;23.00;;;;;10.17;58.16;101656.31;5029828;28;45541;-82
2022/04/27 05:48:45;;;;;;;;;28.50;27.25;;;;;10.24;58.32;101653.34;5014420;28;45446;-82
2022/04/27 05:51:10;;;;;;;;;38.50;30.00;;;;;10.22;58.06;101649.91;5014589;28;45439;-82
2022/04/27 05:53:36;;;;;;;;;32.00;30.00;;;;;10.29;58.09;101653.19;5015133;28;45466;-82
2022/04/27 05:56:01;;;;;;;;;31.00;26.75;;;;;10.25;58.03;101656.91;5015061;28;47552;-82
2022/04/27 05:58:26;;;;;;;;;33.75;30.00;;;;;10.23;58.22;101667.59;5013327;28;46158;-82
2022/04/27 06:00:52;;;;;;;;;31.00;30.00;;;;;10.20;58.31;101662.41;5011954;28;45475;-82
2022/04/27 06:03:18;;;;;;;;;34.00;31.50;;;;;10.19;58.60;101665.13;5013486;28;45437;-82
2022/04/27 06:05:43;;;;;;;;;36.00;28.00;;;;;10.29;58.31;101676.28;5013005;28;45489;-82
2022/04/27 06:08:09;;;;;;;;;37.25;32.25;;;;;10.26;58.54;101682.56;5014505;28;46015;-81
2022/04/27 06:10:35;;;;;;;;;41.00;32.25;;;;;10.23;58.62;101677.38;5014682;28;45491;-81
2022/04/27 06:13:01;;;;;;;;;28.25;28.25;;;;;10.31;58.69;101677.09;5013454;28;45483;-82
2022/04/27 06:15:26;;;;;;;;;37.00;32.75;;;;;10.33;58.35;101689.41;5012848;28;45927;-82
2022/04/27 06:17:51;;;;;;;;;32.75;26.25;;;;;10.33;58.49;101681.44;5008836;28;45927;-81
2022/04/27 06:20:17;;;;;;;;;31.25;31.25;;;;;10.31;58.42;101683.28;5014232;28;48982;-82
2022/04/27 06:22:42;;;;;;;;;36.75;32.75;;;;;10.38;58.17;101695.41;5011009;28;45793;-82
2022/04/27 06:25:08;;;;;;;;;35.25;33.00;;;;;10.38;58.21;101699.88;5013052;28;45522;-84
2022/04/27 06:27:34;;;;;;;;;32.75;28.25;;;;;10.41;58.28;101707.75;5013863;28;45923;-84
2022/04/27 06:30:00;;;;;;;;;37.00;33.00;;;;;10.47;57.92;101709.31;5013750;28;45420;-84
2022/04/27 06:32:29;;;;;;;;;33.75;31.50;;;;;10.39;58.04;101704.25;5009654;28;45362;-82
2022/04/27 06:34:54;;;;;;;;;38.75;32.75;;;;;10.51;58.24;101705.56;5029291;28;45594;-81
2022/04/27 06:37:20;;;;;;;;;30.00;25.75;;;;;10.48;58.18;101708.38;5005413;28;46403;-82
2022/04/27 06:39:45;;;;;;;;;33.50;32.50;;;;;10.45;58.25;101714.69;5005251;28;45511;-82
2022/04/27 06:42:11;;;;;;;;;38.00;33.00;;;;;10.50;58.33;101720.69;5013848;28;45458;-81
2022/04/27 06:44:36;;;;;;;;;37.25;32.00;;;;;10.53;58.33;101723.22;4998832;28;45297;-82
2022/04/27 06:47:02;;;;;;;;;36.50;32.00;;;;;10.57;58.32;101724.84;5012060;28;45347;-82
2022/04/27 06:49:28;;;;;;;;;37.25;34.00;;;;;10.54;58.54;101713.47;5022365;28;45541;-82
2022/04/27 06:51:53;;;;;;;;;33.25;32.25;;;;;10.67;57.99;101725.31;5008078;28;45739;-82
2022/04/27 06:54:20;;;;;;;;;33.50;29.75;;;;;10.66;58.18;101719.16;5013049;28;47582;-82
2022/04/27 06:56:45;;;;;;;;;34.00;29.50;;;;;10.65;57.99;101730.75;5013552;28;46245;-82
2022/04/27 06:59:11;;;;;;;;;40.50;33.75;;;;;10.69;57.73;101742.13;5011846;28;45368;-83
2022/04/27 07:01:36;;;;;;;;;35.25;32.50;;;;;10.68;58.02;101724.41;5013901;28;45444;-83
2022/04/27 07:04:07;;;;;;;;;32.50;31.50;;;;;10.75;58.17;101730.34;5013640;28;45483;-83
2022/04/27 07:06:33;;;;;;;;;37.75;32.00;;;;;10.82;58.07;101739.81;5013299;28;45503;-84
2022/04/27 07:09:00;;;;;;;;;35.00;31.00;;;;;10.83;58.14;101742.41;5013977;28;45420;-83
2022/04/27 07:11:25;;;;;;;;;34.50;30.25;;;;;10.86;58.09;101746.75;5012976;28;45529;-82
2022/04/27 07:13:50;;;;;;;;;42.75;33.75;;;;;10.85;58.20;101743.22;5013440;28;45472;-83
2022/04/27 07:16:16;;;;;;;;;39.75;34.25;;;;;10.92;57.86;101745.63;5013137;28;56192;-83
2022/04/27 07:18:42;;;;;;;;;31.75;29.25;;;;;10.96;57.71;101740.09;5014462;28;45496;-83
2022/04/27 07:21:08;;;;;;;;;37.50;32.50;;;;;10.96;58.07;101739.25;5015631;28;45512;-83
2022/04/27 07:23:33;;;;;;;;;38.75;33.25;;;;;11.04;58.01;101745.09;5016587;28;45398;-82
2022/04/27 07:25:59;;;;;;;;;42.25;33.75;;;;;11.09;57.74;101751.13;5017088;28;45497;-82
2022/04/27 07:28:25;;;;;;;;;37.25;33.25;;;;;11.14;58.30;101746.47;5014186;28;45526;-82
2022/04/27 07:30:50;;;;;;;;;47.25;34.50;;;;;11.19;57.70;101746.28;5009912;28;45270;-82
2022/04/27 07:33:15;;;;;;;;;37.50;33.00;;;;;11.26;57.41;101751.28;5016581;28;45493;-82
2022/04/27 07:35:41;;;;;;;;;40.25;32.00;;;;;11.28;57.41;101753.88;5016467;28;45790;-82
2022/04/27 07:38:06;;;;;;;;;36.25;33.75;;;;;11.33;57.69;101751.91;5016736;28;45467;-83
2022/04/27 07:40:32;;;;;;;;;39.75;33.00;;;;;11.32;57.23;101746.63;5015875;28;45335;-83
2022/04/27 07:42:59;;;;;;;;;32.75;31.75;;;;;11.39;57.43;101754.28;5016270;28;45226;-82
2022/04/27 07:45:25;;;;;;;;;39.75;33.75;;;;;11.43;57.22;101755.03;5015457;28;45908;-82
2022/04/27 07:47:50;;;;;;;;;38.25;34.25;;;;;11.51;57.37;101766.22;5008033;28;45538;-82
2022/04/27 07:50:16;;;;;;;;;41.75;34.00;;;;;11.56;57.06;101756.22;5011154;28;45498;-82
2022/04/27 07:52:43;;;;;;;;;38.50;35.25;;;;;11.59;57.16;101760.53;5016857;28;45500;-83
2022/04/27 07:55:10;;;;;;;;;37.25;34.25;;;;;11.63;57.18;101768.34;5009752;28;45495;-83
2022/04/27 07:57:35;;;;;;;;;38.75;33.25;;;;;11.79;56.70;101776.53;5008992;28;45431;-84
2022/04/27 08:00:05;;;;;;;;;38.50;32.75;;;;;11.85;57.27;101772.72;5007418;28;45909;-83
2022/04/27 08:02:30;;;;;;;;;39.75;33.50;;;;;11.89;56.85;101772.56;5015026;28;45686;-83
2022/04/27 08:04:55;;;;;;;;;40.00;34.75;;;;;11.88;57.28;101762.84;5015970;28;45519;-83
2022/04/27 08:07:21;;;;;;;;;39.50;35.00;;;;;11.99;56.51;101764.13;5013709;28;63411;-83
2022/04/27 08:09:46;;;;;;;;;38.25;35.00;;;;;12.02;56.48;101764.84;5031266;28;45462;-82
2022/04/27 08:12:12;;;;;;;;;34.00;32.00;;;;;12.10;56.41;101773.38;5016446;28;45385;-81
2022/04/27 08:14:37;;;;;;;;;36.75;34.00;;;;;12.16;56.83;101780.25;5016472;28;46087;-81
2022/04/27 08:17:03;;;;;;;;;35.50;31.75;;;;;12.20;56.74;101778.31;5017244;28;45549;-81
2022/04/27 08:19:29;;;;;;;;;36.50;32.25;;;;;12.24;56.18;101777.22;5016438;28;45348;-82
2022/04/27 08:21:55;;;;;;;;;39.75;33.00;;;;;12.28;56.43;101763.66;5015107;28;45482;-82
2022/04/27 08:24:24;;;;;;;;;36.50;32.25;;;;;12.41;56.09;101773.75;5015940;28;45535;-82
2022/04/27 08:26:50;;;;;;;;;36.75;33.25;;;;;12.47;55.56;101779.66;5016120;28;45269;-81
2022/04/27 08:29:16;;;;;;;;;39.75;33.50;;;;;12.49;55.66;101768.94;5016690;28;45498;-81
2022/04/27 08:31:41;;;;;;;;;38.00;34.00;;;;;12.49;55.70;101756.44;5015258;28;45612;-81
2022/04/27 08:34:07;;;;;;;;;33.50;31.75;;;;;12.67;55.72;101777.84;5014660;28;48143;-82
2022/04/27 08:36:33;;;;;;;;;48.00;37.00;;;;;12.76;55.37;101778.28;5015879;28;45531;-82
2022/04/27 08:39:00;;;;;;;;;34.75;32.00;;;;;12.74;55.65;101785.50;5014579;28;45582;-81
2022/04/27 08:41:28;;;;;;;;;35.75;32.25;;;;;12.75;55.37;101783.72;5016039;28;45590;-82
2022/04/27 08:43:54;;;;;;;;;36.50;33.25;;;;;12.74;55.73;101782.81;5016415;28;45234;-82
2022/04/27 08:46:19;;;;;;;;;37.50;32.50;;;;;12.99;55.67;101779.81;5015796;28;45980;-81
2022/04/27 08:48:48;;;;;;;;;35.00;31.50;;;;;13.10;54.74;101776.59;5015659;28;45451;-81
2022/04/27 08:51:14;;;;;;;;;48.50;35.75;;;;;13.15;55.06;101787.94;5013134;28;45505;-82
2022/04/27 08:53:41;;;;;;;;;41.00;34.00;;;;;13.11;55.04;101766.81;5000581;28;46338;-82
2022/04/27 08:56:07;;;;;;;;;39.25;32.00;;;;;13.21;55.23;101771.59;5014718;28;46390;-82
2022/04/27 08:58:32;;;;;;;;;36.00;32.00;;;;;13.25;55.29;101777.63;5015341;28;45344;-81
2022/04/27 09:00:59;;;;;;;;;38.75;33.50;;;;;13.33;54.77;101766.59;5014228;28;45424;-81
2022/04/27 09:03:30;;;;;;;;;35.50;32.50;;;;;13.39;54.86;101766.28;5015562;28;45432;-82
2022/04/27 09:06:11;;;;;;;;;45.50;36.50;;;;;13.55;55.10;101769.03;5015557;28;45341;-81
2022/04/27 09:08:48;;;;;;;;;32.25;32.00;;;;;13.72;54.56;101771.69;5012318;28;45373;-82
2022/04/27 09:11:22;;;;;;;;;41.25;33.25;;;;;13.83;54.34;101761.28;5013503;28;45536;-82
2022/04/27 09:14:02;;;;;;;;;34.75;31.50;;;;;13.96;54.00;101768.66;5012452;28;46441;-82
2022/04/27 09:20:46;;;;;;;;;38.75;33.75;;;;;13.98;53.77;101762.28;5014746;28;45492;-82
2022/04/27 09:22:06;;;;;;;;;38.00;32.75;;;;;14.09;54.11;101760.81;5012386;28;45428;-82
2022/04/27 09:24:52;;;;;;;;;36.75;32.50;;;;;14.17;54.03;101767.50;5013037;28;46077;-82
2022/04/27 09:27:19;;;;;;;;;48.25;39.00;;;;;14.32;53.69;101768.44;5011169;28;45666;-82
2022/04/27 09:30:01;;;;;;;;;42.75;34.50;;;;;14.38;53.49;101759.19;5008014;28;45558;-82
2022/04/27 09:32:27;;;;;;;;;41.75;34.25;;;;;14.44;53.75;101759.72;5014724;28;45593;-82
2022/04/27 09:34:54;;;;;;;;;46.50;35.50;;;;;14.62;53.48;101773.97;5013355;28;46167;-82
2022/04/27 09:37:24;;;;;;;;;41.00;35.25;;;;;14.83;53.22;101769.16;5015303;28;45436;-82
2022/04/27 09:40:07;;;;;;;;;40.75;35.00;;;;;14.93;52.73;101766.81;5013030;28;45482;-82
2022/04/27 09:42:35;;;;;;;;;43.50;34.50;;;;;15.02;52.76;101765.44;5015367;28;45550;-82
2022/04/27 09:45:23;;;;;;;;;28.75;27.00;;;;;15.27;52.44;101760.34;5013649;28;45312;-82
2022/04/27 09:48:08;;;;;;;;;37.50;32.50;;;;;15.32;52.04;101770.78;5000501;28;45559;-83
2022/04/27 09:50:46;;;;;;;;;35.00;33.00;;;;;15.50;51.92;101767.00;5013926;28;45372;-82
2022/04/27 09:53:11;;;;;;;;;38.75;33.25;;;;;15.62;51.94;101764.56;5027694;28;45513;-83
2022/04/27 09:55:44;;;;;;;;;40.25;33.25;;;;;15.68;50.85;101767.72;5014741;28;46719;-82
2022/04/27 09:58:12;;;;;;;;;41.75;33.75;;;;;15.73;51.05;101760.28;5014560;28;45471;-82
2022/04/27 10:00:42;;;;;;;;;39.25;33.75;;;;;15.88;51.41;101757.63;5012351;28;45726;-82
2022/04/27 10:03:08;;;;;;;;;32.75;30.50;;;;;16.02;51.24;101760.31;5010699;28;45412;-83
2022/04/27 10:05:33;;;;;;;;;38.75;35.00;;;;;16.06;50.79;101750.22;5019705;28;47654;-83
2022/04/27 10:08:01;;;;;;;;;38.75;34.00;;;;;16.27;50.16;101756.91;5003462;28;45492;-83
2022/04/27 10:10:27;;;;;;;;;38.50;33.00;;;;;16.31;49.41;101731.59;5013999;28;45367;-83
2022/04/27 10:12:53;;;;;;;;;36.00;33.00;;;;;16.38;49.60;101740.97;5009546;28;45915;-83
2022/04/27 10:15:19;;;;;;;;;37.00;32.25;;;;;16.48;49.75;101735.00;5011873;28;45695;-83
2022/04/27 10:17:45;;;;;;;;;37.50;32.25;;;;;16.57;48.92;101729.88;5014187;28;45735;-83
2022/04/27 10:20:34;;;;;;;;;35.75;32.25;;;;;16.76;48.55;101734.03;5013936;28;45393;-82
2022/04/27 10:23:19;;;;;;;;;35.00;32.00;;;;;16.86;48.82;101740.59;5011659;28;45361;-83
2022/04/27 10:26:23;;;;;;;;;38.25;32.75;;;;;16.99;47.91;101732.53;5027726;28;48387;-83
2022/04/27 10:28:56;;;;;;;;;31.50;29.75;;;;;16.83;47.69;101722.78;5006513;28;45626;-82
2022/04/27 10:31:40;;;;;;;;;37.00;33.25;;;;;16.87;48.12;101726.16;5013549;28;45669;-83
2022/04/27 10:34:17;;;;;;;;;33.75;31.50;;;;;17.00;47.88;101723.50;5011591;28;45522;-83
2022/04/27 10:36:44;;;;;;;;;36.25;33.25;;;;;17.13;47.69;101716.34;5013121;28;45782;-83
2022/04/27 10:39:12;;;;;;;;;35.75;30.75;;;;;17.35;47.50;101713.03;5012487;28;45500;-83
2022/04/27 10:41:59;;;;;;;;;28.75;27.00;;;;;17.55;47.49;101724.22;5014017;28;45517;-82
2022/04/27 10:44:50;;;;;;;;;25.75;24.25;;;;;17.75;46.18;101707.56;5013465;28;45598;-83
2022/04/27 10:47:20;;;;;;;;;29.50;28.75;;;;;17.72;45.31;101706.88;5013346;28;48447;-83
2022/04/27 10:49:48;;;;;;;;;29.75;28.00;;;;;17.61;45.83;101703.13;5030752;28;45421;-83
2022/04/27 10:52:14;;;;;;;;;32.25;28.75;;;;;17.65;46.04;101682.22;5016037;28;45393;-83
2022/04/27 10:54:41;;;;;;;;;32.00;27.25;;;;;17.93;45.76;101699.16;5011197;28;45574;-83
2022/04/27 10:57:15;;;;;;;;;26.25;25.75;;;;;18.07;45.06;101701.72;5005853;28;45494;-83
2022/04/27 10:59:56;;;;;;;;;27.75;25.50;;;;;18.19;44.67;101708.06;5009411;28;45470;-83
2022/04/27 11:02:31;;;;;;;;;25.75;23.00;;;;;18.17;43.84;101700.06;5017420;28;45661;-83
2022/04/27 11:04:57;;;;;;;;;26.50;22.25;;;;;18.21;43.60;101698.88;5017451;28;45492;-83
2022/04/27 11:07:28;;;;;;;;;24.00;23.25;;;;;18.37;43.67;101698.59;5016453;28;45531;-83
2022/04/27 11:10:09;;;;;;;;;29.00;28.50;;;;;18.49;43.37;101686.03;5017217;28;45340;-83
2022/04/27 11:12:36;;;;;;;;;23.50;22.75;;;;;18.57;43.75;101686.34;5017199;28;45444;-83
2022/04/27 11:15:03;;;;;;;;;25.50;20.75;;;;;18.75;43.27;101681.41;5017208;28;45517;-83
2022/04/27 11:17:29;;;;;;;;;21.75;19.75;;;;;18.91;43.12;101682.00;5017130;28;46103;-83
2022/04/27 11:19:54;;;;;;;;;18.00;15.50;;;;;19.08;43.01;101680.69;5010926;28;45547;-83
2022/04/27 11:22:20;;;;;;;;;21.50;21.50;;;;;19.25;41.77;101682.09;5014374;28;45459;-83
2022/04/27 11:24:49;;;;;;;;;23.50;19.25;;;;;19.33;41.14;101678.78;5015555;28;45576;-82
2022/04/27 11:27:26;;;;;;;;;17.75;17.75;;;;;19.39;41.18;101674.75;5010710;28;46166;-83
2022/04/27 11:29:53;;;;;;;;;18.25;17.00;;;;;19.37;39.86;101666.78;5032161;28;45474;-82
2022/04/27 11:32:18;;;;;;;;;18.00;15.50;;;;;19.43;40.04;101679.78;5005503;28;45804;-82
2022/04/27 11:34:50;;;;;;;;;17.25;16.25;;;;;19.41;39.74;101668.25;5004641;28;45529;-82
2022/04/27 11:37:18;;;;;;;;;22.00;19.00;;;;;19.56;39.69;101676.97;5014652;28;46317;-82
2022/04/27 11:39:44;;;;;;;;;17.75;17.75;;;;;19.61;40.06;101676.63;5014639;28;45545;-83
2022/04/27 11:42:12;;;;;;;;;21.00;19.25;;;;;19.71;39.78;101667.69;5014640;28;45494;-85
2022/04/27 11:44:38;;;;;;;;;24.50;21.75;;;;;19.75;39.55;101674.56;5004999;28;45439;-84
2022/04/27 11:47:04;;;;;;;;;18.25;17.25;;;;;19.78;39.74;101677.00;5015360;28;48632;-85
2022/04/27 11:49:29;;;;;;;;;19.00;19.00;;;;;19.76;39.49;101665.47;5016223;28;45418;-85